Time;durP1;ratioP1;P1;durP2;ratioP2;P2;SDS_P1;SDS_P2;PMS_P1;PMS_P2;Temp;Humidity;BMP_temperature;BMP_pressure;BME280_temperature;BME280_humidity;BME280_pressure;Samples;Min_cycle;Max_cycle;Signal;HPM_P1;HPM_P2
2021/05/23 00:01:36;;;;;;;8.53;3.53;;;10.10;98.30;;;;;;4166721;28;20477;-84
2021/05/23 00:03:38;;;;;;;13.90;4.13;;;10.10;98.30;;;;;;4163006;28;20548;-84
2021/05/23 00:05:43;;;;;;;10.20;3.87;;;10.10;98.30;;;;;;4167960;28;20492;-83
2021/05/23 00:07:52;;;;;;;4.07;3.53;;;10.10;98.30;;;;;;4167210;28;20512;-85
2021/05/23 00:09:55;;;;;;;9.37;3.67;;;10.10;98.30;;;;;;4169768;28;20920;-84
2021/05/23 00:11:57;;;;;;;4.37;3.10;;;10.10;98.30;;;;;;4167396;28;20466;-84
2021/05/23 00:13:59;;;;;;;4.17;3.20;;;10.10;98.30;;;;;;4168239;28;20545;-85
2021/05/23 00:16:04;;;;;;;8.00;3.50;;;10.10;98.30;;;;;;4162160;28;20503;-84
2021/05/23 00:18:08;;;;;;;6.70;3.17;;;10.10;98.30;;;;;;4168812;28;20496;-86
2021/05/23 00:20:12;;;;;;;5.13;3.87;;;10.10;98.30;;;;;;4166904;28;20449;-86
2021/05/23 00:22:18;;;;;;;6.17;3.30;;;10.10;98.30;;;;;;4161349;28;20911;-84
2021/05/23 00:24:20;;;;;;;5.73;3.20;;;10.10;98.30;;;;;;4161197;28;20461;-85
2021/05/23 00:26:23;;;;;;;5.00;3.20;;;10.10;98.30;;;;;;4160440;28;20548;-85
2021/05/23 00:28:27;;;;;;;5.70;3.20;;;10.10;98.30;;;;;;4161241;28;20558;-85
2021/05/23 00:30:29;;;;;;;5.70;3.40;;;10.10;98.30;;;;;;4162185;28;20446;-84
2021/05/23 00:32:31;;;;;;;4.30;3.13;;;10.10;98.30;;;;;;4163234;28;20466;-84
2021/05/23 00:34:35;;;;;;;7.30;4.03;;;10.00;98.30;;;;;;4161689;28;20986;-85
2021/05/23 00:36:37;;;;;;;6.63;3.70;;;10.10;98.30;;;;;;4161530;28;20499;-84
2021/05/23 00:38:40;;;;;;;5.83;3.80;;;10.00;98.30;;;;;;4157770;28;20581;-85
2021/05/23 00:40:43;;;;;;;4.77;3.37;;;10.00;98.30;;;;;;4160340;28;20543;-86
2021/05/23 00:42:46;;;;;;;7.77;3.20;;;10.00;98.30;;;;;;4159997;28;20470;-84
2021/05/23 00:44:48;;;;;;;9.43;3.30;;;10.00;98.30;;;;;;4162792;28;21003;-86
2021/05/23 00:46:51;;;;;;;8.23;3.80;;;10.00;98.30;;;;;;4157619;28;20553;-85
2021/05/23 00:48:53;;;;;;;6.03;3.03;;;10.00;98.30;;;;;;4152297;28;20597;-85
2021/05/23 00:50:56;;;;;;;10.33;4.10;;;10.00;98.30;;;;;;4154102;28;20548;-84
2021/05/23 00:53:00;;;;;;;9.50;3.10;;;10.00;98.30;;;;;;4154200;28;20473;-85
2021/05/23 00:55:05;;;;;;;5.03;3.57;;;10.00;98.30;;;;;;4153489;28;20471;-85
2021/05/23 00:57:07;;;;;;;6.43;3.33;;;10.00;98.30;;;;;;4162192;28;20485;-85
2021/05/23 00:59:11;;;;;;;4.60;3.23;;;10.00;98.30;;;;;;4158004;28;20556;-85
2021/05/23 01:01:35;;;;;;;4.77;3.73;;;10.10;98.30;;;;;;4162515;28;20538;-85
2021/05/23 01:03:58;;;;;;;7.50;3.73;;;10.00;98.30;;;;;;4158809;28;20563;-86
2021/05/23 01:06:04;;;;;;;7.70;3.20;;;10.00;98.30;;;;;;4151775;28;21017;-86
2021/05/23 01:08:06;;;;;;;4.80;3.70;;;10.00;98.30;;;;;;4164004;28;20495;-84
2021/05/23 01:10:15;;;;;;;4.73;3.50;;;10.00;98.30;;;;;;4156692;28;20473;-84
2021/05/23 01:13:08;;;;;;;6.73;3.20;;;10.00;98.30;;;;;;4154874;28;20461;-84
2021/05/23 01:15:10;;;;;;;8.13;3.60;;;10.00;98.30;;;;;;4158376;28;20469;-85
2021/05/23 01:17:14;;;;;;;8.90;3.60;;;10.00;98.30;;;;;;4163943;28;20481;-84
2021/05/23 01:19:22;;;;;;;5.87;3.60;;;10.00;98.30;;;;;;4164674;28;20572;-85
2021/05/23 01:21:26;;;;;;;9.37;4.00;;;10.00;98.30;;;;;;4158669;28;20463;-86
2021/05/23 01:23:30;;;;;;;12.40;3.73;;;10.00;98.30;;;;;;4150653;28;20472;-85
2021/05/23 01:25:39;;;;;;;7.20;3.07;;;10.00;98.30;;;;;;4161136;28;20978;-85
2021/05/23 01:27:46;;;;;;;6.10;3.57;;;10.00;98.30;;;;;;4152699;28;20550;-84
2021/05/23 01:29:48;;;;;;;10.13;3.07;;;10.00;98.30;;;;;;4158330;28;20469;-84
2021/05/23 01:31:54;;;;;;;6.40;3.43;;;10.00;98.30;;;;;;4156639;28;20500;-85
2021/05/23 01:33:59;;;;;;;5.80;3.67;;;10.10;98.30;;;;;;4158277;28;20485;-85
2021/05/23 01:36:03;;;;;;;6.83;3.40;;;10.10;98.30;;;;;;4154070;28;20497;-84
2021/05/23 01:38:12;;;;;;;6.53;3.77;;;10.10;98.30;;;;;;4149113;28;20494;-84
2021/05/23 01:40:17;;;;;;;6.77;3.10;;;10.00;98.30;;;;;;4158850;28;20815;-84
2021/05/23 01:42:21;;;;;;;7.93;3.77;;;10.00;98.30;;;;;;4164341;28;20469;-85
2021/05/23 01:44:25;;;;;;;8.73;3.53;;;10.00;98.30;;;;;;4159691;28;20489;-85
2021/05/23 01:46:28;;;;;;;7.40;3.43;;;10.00;98.30;;;;;;4152786;28;20470;-85
2021/05/23 01:48:32;;;;;;;5.43;3.43;;;10.00;98.30;;;;;;4160621;28;20576;-84
2021/05/23 01:50:35;;;;;;;5.90;3.60;;;9.90;98.30;;;;;;4155428;28;20466;-84
2021/05/23 01:52:47;;;;;;;5.40;3.10;;;9.90;98.30;;;;;;4156951;28;20879;-85
2021/05/23 01:54:50;;;;;;;9.37;3.50;;;9.90;98.30;;;;;;4161638;28;21133;-85
2021/05/23 01:56:52;;;;;;;8.13;3.43;;;9.90;98.30;;;;;;4154262;28;20466;-85
2021/05/23 01:58:56;;;;;;;11.47;4.00;;;9.90;98.30;;;;;;4157417;28;20539;-84
2021/05/23 02:00:58;;;;;;;7.73;3.40;;;9.90;98.30;;;;;;4155383;28;20494;-84
2021/05/23 02:03:04;;;;;;;8.50;3.87;;;9.90;98.30;;;;;;4149013;28;20466;-85
2021/05/23 02:05:08;;;;;;;10.73;3.80;;;9.90;98.30;;;;;;4152224;28;20803;-84
2021/05/23 02:07:12;;;;;;;4.63;3.43;;;9.90;98.30;;;;;;4154480;28;20938;-84
2021/05/23 02:09:14;;;;;;;8.03;3.43;;;9.90;98.30;;;;;;4156282;28;21395;-84
2021/05/23 02:11:31;;;;;;;4.67;3.20;;;9.80;98.30;;;;;;4154854;28;20469;-84
2021/05/23 02:13:37;;;;;;;7.73;5.23;;;9.80;98.30;;;;;;4153751;28;20930;-84
2021/05/23 02:15:42;;;;;;;9.67;3.80;;;9.80;98.30;;;;;;4152501;28;20476;-87
2021/05/23 02:17:46;;;;;;;5.73;3.27;;;9.80;98.30;;;;;;4153717;28;20482;-84
2021/05/23 02:19:49;;;;;;;4.80;3.10;;;9.80;98.30;;;;;;4157922;28;20493;-84
2021/05/23 02:21:52;;;;;;;7.97;3.23;;;9.80;98.30;;;;;;4151333;28;20471;-85
2021/05/23 02:23:58;;;;;;;8.50;3.50;;;9.80;98.30;;;;;;4161903;28;20477;-85
2021/05/23 02:26:00;;;;;;;5.60;3.07;;;9.80;98.30;;;;;;4156520;28;20472;-84
2021/05/23 02:28:06;;;;;;;6.67;3.93;;;9.80;98.30;;;;;;4156693;28;20477;-84
2021/05/23 02:30:10;;;;;;;6.07;4.57;;;9.80;98.30;;;;;;4153160;28;20964;-84
2021/05/23 02:32:14;;;;;;;6.80;3.67;;;9.80;98.30;;;;;;4158534;28;20469;-84
2021/05/23 02:34:16;;;;;;;6.80;3.83;;;9.80;98.30;;;;;;4156300;28;20575;-85
2021/05/23 02:36:19;;;;;;;8.07;3.80;;;9.70;98.30;;;;;;4156438;28;20465;-85
2021/05/23 02:38:23;;;;;;;7.33;3.27;;;9.70;98.30;;;;;;4154045;28;20959;-85
2021/05/23 02:40:28;;;;;;;10.67;3.40;;;9.70;98.30;;;;;;4154561;28;20476;-85
2021/05/23 02:42:31;;;;;;;13.67;4.20;;;9.70;98.30;;;;;;4151495;28;20501;-85
2021/05/23 02:44:33;;;;;;;12.10;4.23;;;9.80;98.30;;;;;;4156079;28;20507;-85
2021/05/23 02:46:37;;;;;;;5.40;3.43;;;9.80;98.30;;;;;;4157016;28;21338;-86
2021/05/23 02:48:41;;;;;;;7.63;3.77;;;9.70;98.30;;;;;;4154174;28;20482;-84
2021/05/23 02:50:46;;;;;;;9.17;4.03;;;9.70;98.30;;;;;;4156761;28;20989;-84
2021/05/23 02:52:48;;;;;;;9.10;3.60;;;9.70;98.30;;;;;;4151906;28;20461;-86
2021/05/23 02:54:51;;;;;;;8.60;3.60;;;9.60;98.30;;;;;;4147668;28;20933;-85
2021/05/23 02:56:53;;;;;;;11.20;4.30;;;9.60;98.30;;;;;;4159241;28;20501;-85
2021/05/23 02:58:56;;;;;;;5.30;3.70;;;9.60;98.30;;;;;;4157605;28;20476;-84
2021/05/23 03:00:58;;;;;;;7.50;3.50;;;9.60;98.30;;;;;;4152450;28;20985;-85
2021/05/23 03:03:02;;;;;;;6.63;3.57;;;9.50;98.30;;;;;;4150949;28;20546;-85
2021/05/23 03:05:07;;;;;;;9.93;3.90;;;9.50;98.30;;;;;;4159578;28;20460;-85
2021/05/23 03:07:11;;;;;;;5.60;3.40;;;9.50;98.30;;;;;;4155678;28;20493;-84
2021/05/23 03:09:14;;;;;;;9.53;3.23;;;9.50;98.30;;;;;;4156514;28;20837;-85
2021/05/23 03:11:17;;;;;;;7.63;3.60;;;9.40;98.30;;;;;;4159799;28;20435;-86
2021/05/23 03:13:20;;;;;;;8.10;3.57;;;9.40;98.30;;;;;;4160993;28;20777;-85
2021/05/23 03:15:25;;;;;;;11.30;4.30;;;9.40;98.30;;;;;;4153100;28;20459;-85
2021/05/23 03:17:27;;;;;;;9.03;3.87;;;9.40;98.30;;;;;;4149608;28;20501;-85
2021/05/23 03:19:30;;;;;;;4.77;3.77;;;9.40;98.30;;;;;;4158097;28;20473;-85
2021/05/23 03:21:34;;;;;;;6.40;4.03;;;9.40;98.30;;;;;;4156514;28;20463;-85
2021/05/23 03:23:37;;;;;;;10.00;4.10;;;9.40;98.30;;;;;;4155501;28;20479;-84
2021/05/23 03:25:40;;;;;;;10.70;4.00;;;9.40;98.30;;;;;;4154048;28;20461;-84
2021/05/23 03:27:43;;;;;;;9.07;4.47;;;9.40;98.30;;;;;;4155963;28;20488;-87
2021/05/23 03:29:45;;;;;;;9.90;3.70;;;9.40;98.30;;;;;;4161128;28;20475;-84
2021/05/23 03:31:48;;;;;;;4.80;3.50;;;9.40;98.30;;;;;;4158648;28;20471;-85
2021/05/23 03:33:51;;;;;;;7.00;3.97;;;9.40;98.30;;;;;;4151708;28;20474;-86
2021/05/23 03:35:53;;;;;;;8.00;4.37;;;9.40;98.30;;;;;;4151574;28;20441;-86
2021/05/23 03:37:57;;;;;;;10.10;3.53;;;9.40;98.30;;;;;;4154379;28;20500;-85
2021/05/23 03:39:59;;;;;;;8.13;3.97;;;9.30;98.30;;;;;;4156598;28;20810;-85
2021/05/23 03:42:02;;;;;;;13.40;4.30;;;9.30;98.30;;;;;;4155971;28;20454;-85
2021/05/23 03:44:04;;;;;;;5.33;3.70;;;9.30;98.30;;;;;;4151346;28;20493;-85
2021/05/23 03:46:07;;;;;;;6.90;3.43;;;9.30;98.30;;;;;;4157361;28;20466;-85
2021/05/23 03:48:10;;;;;;;8.60;4.03;;;9.20;98.30;;;;;;4154996;28;20488;-85
2021/05/23 03:50:17;;;;;;;9.27;4.17;;;9.20;98.30;;;;;;4155209;28;20977;-85
2021/05/23 03:52:20;;;;;;;12.03;4.23;;;9.20;98.30;;;;;;4154961;28;20452;-86
2021/05/23 03:54:24;;;;;;;7.27;3.80;;;9.20;98.30;;;;;;4151498;28;20467;-87
2021/05/23 03:56:27;;;;;;;8.93;4.20;;;9.20;98.30;;;;;;4155777;28;20443;-85
2021/05/23 03:58:29;;;;;;;6.90;3.90;;;9.20;98.30;;;;;;4156531;28;20528;-85
2021/05/23 04:00:33;;;;;;;8.43;3.53;;;9.20;98.30;;;;;;4157100;28;20483;-86
2021/05/23 04:02:35;;;;;;;11.60;4.10;;;9.30;98.30;;;;;;4153116;28;20459;-86
2021/05/23 04:04:48;;;;;;;6.87;3.77;;;9.30;98.30;;;;;;4153404;28;20475;-85
2021/05/23 04:06:51;;;;;;;12.33;5.00;;;9.30;98.30;;;;;;4152792;28;20465;-85
2021/05/23 04:08:53;;;;;;;5.20;3.70;;;9.30;98.30;;;;;;4155198;28;20476;-85
2021/05/23 04:11:00;;;;;;;7.00;4.13;;;9.40;98.30;;;;;;4156920;28;20476;-84
2021/05/23 04:13:04;;;;;;;9.40;3.87;;;9.40;98.30;;;;;;4159699;28;20531;-85
2021/05/23 04:15:08;;;;;;;13.73;4.80;;;9.50;98.30;;;;;;4156109;28;21021;-85
2021/05/23 04:17:11;;;;;;;7.23;4.20;;;9.50;98.30;;;;;;4155254;28;20913;-85
2021/05/23 04:19:14;;;;;;;8.73;4.47;;;9.40;98.30;;;;;;4158944;28;20565;-85
2021/05/23 04:21:16;;;;;;;11.10;4.23;;;9.40;98.30;;;;;;4155080;28;20461;-86
2021/05/23 04:23:20;;;;;;;10.10;4.00;;;9.40;98.30;;;;;;4154959;28;20568;-85
2021/05/23 04:25:24;;;;;;;13.30;4.20;;;9.40;98.30;;;;;;4156444;28;20573;-85
2021/05/23 04:27:28;;;;;;;8.70;3.70;;;9.40;98.30;;;;;;4154514;28;20488;-85
2021/05/23 04:29:32;;;;;;;28.67;13.67;;;9.40;98.30;;;;;;4155731;28;20504;-85
2021/05/23 04:31:34;;;;;;;8.47;3.97;;;9.40;98.30;;;;;;4147858;28;20480;-86
2021/05/23 04:33:37;;;;;;;8.80;3.77;;;9.50;98.30;;;;;;4156145;28;20468;-85
2021/05/23 04:35:39;;;;;;;10.33;4.03;;;9.50;98.30;;;;;;4151619;28;20459;-85
2021/05/23 04:37:44;;;;;;;6.87;3.90;;;9.50;98.30;;;;;;4158783;28;20557;-85
2021/05/23 04:39:47;;;;;;;10.80;4.63;;;9.50;98.30;;;;;;4155457;28;20560;-85
2021/05/23 04:41:49;;;;;;;9.43;4.13;;;9.40;98.30;;;;;;4155285;28;20485;-85
2021/05/23 04:43:53;;;;;;;11.73;4.30;;;9.30;98.30;;;;;;4153473;28;20459;-85
2021/05/23 04:45:56;;;;;;;8.43;3.43;;;9.30;98.30;;;;;;4151890;28;20466;-85
2021/05/23 04:47:58;;;;;;;6.00;3.37;;;9.30;98.30;;;;;;4154060;28;20865;-84
2021/05/23 04:50:01;;;;;;;14.70;4.80;;;9.30;98.30;;;;;;4155492;28;20574;-86
2021/05/23 04:52:04;;;;;;;15.50;4.40;;;9.30;98.30;;;;;;4154085;28;20466;-87
2021/05/23 04:54:06;;;;;;;7.10;3.73;;;9.30;98.30;;;;;;4154525;28;20552;-84
2021/05/23 04:56:09;;;;;;;11.03;4.30;;;9.30;98.30;;;;;;4153011;28;21055;-85
2021/05/23 04:58:11;;;;;;;7.57;3.83;;;9.40;98.30;;;;;;4154240;28;20508;-85
2021/05/23 05:00:15;;;;;;;10.73;3.50;;;9.40;98.30;;;;;;4151740;28;20499;-85
2021/05/23 05:02:18;;;;;;;9.37;3.50;;;9.50;98.30;;;;;;4153160;28;20476;-85
2021/05/23 05:04:21;;;;;;;10.97;3.90;;;9.50;98.30;;;;;;4154751;28;20835;-85
2021/05/23 05:06:23;;;;;;;9.63;3.87;;;9.50;98.30;;;;;;4153420;28;20463;-86
2021/05/23 05:08:26;;;;;;;9.70;3.47;;;9.60;98.30;;;;;;4155712;28;20903;-84
2021/05/23 05:10:28;;;;;;;9.87;3.90;;;9.60;98.30;;;;;;4153554;28;20573;-85
2021/05/23 05:12:31;;;;;;;5.90;3.33;;;9.50;98.30;;;;;;4155107;28;20478;-85
2021/05/23 05:14:33;;;;;;;9.47;3.80;;;9.50;98.30;;;;;;4154044;28;20443;-86
2021/05/23 05:16:37;;;;;;;6.97;3.67;;;9.50;98.30;;;;;;4153037;28;20538;-85
2021/05/23 05:18:39;;;;;;;15.07;3.73;;;9.60;98.30;;;;;;4158805;28;20469;-86
2021/05/23 05:20:42;;;;;;;8.27;3.60;;;9.60;98.30;;;;;;4156713;28;20568;-85
2021/05/23 05:22:45;;;;;;;7.47;3.53;;;9.70;98.30;;;;;;4158088;28;20470;-85
2021/05/23 05:24:47;;;;;;;14.13;4.03;;;9.60;98.30;;;;;;4154468;28;20469;-86
2021/05/23 05:26:50;;;;;;;10.60;3.97;;;9.70;98.30;;;;;;4154819;28;20515;-85
2021/05/23 05:28:52;;;;;;;6.60;3.47;;;9.70;98.30;;;;;;4155650;28;20472;-86
2021/05/23 05:30:55;;;;;;;7.07;3.60;;;9.70;98.30;;;;;;4155958;28;20477;-85
2021/05/23 05:32:59;;;;;;;8.23;3.67;;;9.80;98.30;;;;;;4150624;28;20504;-86
2021/05/23 05:35:02;;;;;;;5.40;3.37;;;9.70;98.30;;;;;;4157369;28;21265;-85
2021/05/23 05:37:04;;;;;;;15.23;4.10;;;9.70;98.30;;;;;;4155976;28;20580;-86
2021/05/23 05:39:07;;;;;;;5.57;3.30;;;9.50;98.30;;;;;;4154307;28;20461;-85
2021/05/23 05:41:09;;;;;;;5.40;3.30;;;9.50;98.30;;;;;;4151347;28;20569;-84
2021/05/23 05:43:12;;;;;;;6.53;3.07;;;9.60;98.30;;;;;;4153327;28;20461;-85
2021/05/23 05:45:15;;;;;;;4.77;3.50;;;9.50;98.30;;;;;;4151572;28;20467;-85
2021/05/23 05:47:17;;;;;;;6.93;3.80;;;9.60;98.30;;;;;;4151449;28;20994;-86
2021/05/23 05:49:21;;;;;;;9.60;3.57;;;9.70;98.30;;;;;;4153247;28;20690;-86
2021/05/23 05:51:23;;;;;;;8.90;3.83;;;9.70;98.30;;;;;;4165942;28;20471;-85
2021/05/23 05:53:25;;;;;;;9.17;3.47;;;9.80;98.30;;;;;;4170455;28;20538;-85
2021/05/23 05:55:28;;;;;;;7.83;3.00;;;9.90;98.30;;;;;;4169125;28;20470;-85
2021/05/23 05:57:30;;;;;;;4.40;3.87;;;9.90;98.30;;;;;;4159811;28;20633;-85
2021/05/23 05:59:33;;;;;;;5.10;3.30;;;9.90;98.30;;;;;;4152979;28;20500;-85
2021/05/23 06:01:35;;;;;;;6.80;3.60;;;10.00;98.30;;;;;;4153581;28;20479;-85
2021/05/23 06:03:37;;;;;;;7.40;4.03;;;10.10;98.30;;;;;;4151288;28;20548;-85
2021/05/23 06:05:41;;;;;;;8.70;3.40;;;10.20;98.30;;;;;;4147724;28;20468;-85
2021/05/23 06:07:44;;;;;;;8.37;3.60;;;10.20;98.30;;;;;;4151621;28;20500;-86
2021/05/23 06:09:46;;;;;;;5.13;3.37;;;10.40;98.30;;;;;;4150807;28;20474;-86
2021/05/23 06:11:48;;;;;;;7.60;3.50;;;10.40;98.30;;;;;;4152566;28;20471;-85
2021/05/23 06:13:51;;;;;;;5.10;3.47;;;10.30;98.30;;;;;;4152968;28;20474;-86
2021/05/23 06:15:53;;;;;;;8.70;3.57;;;10.30;98.30;;;;;;4152372;28;20625;-86
2021/05/23 06:17:58;;;;;;;14.13;3.57;;;10.30;98.30;;;;;;4151796;28;20521;-86
2021/05/23 06:20:01;;;;;;;5.43;3.40;;;10.40;98.30;;;;;;4153690;28;20580;-85
2021/05/23 06:22:04;;;;;;;8.50;3.80;;;10.30;98.30;;;;;;4151991;28;20469;-86
2021/05/23 06:24:08;;;;;;;8.67;3.43;;;10.30;98.30;;;;;;4152542;28;20507;-86
2021/05/23 06:26:13;;;;;;;10.37;3.40;;;10.30;98.30;;;;;;4152320;28;20470;-85
2021/05/23 06:28:16;;;;;;;7.10;3.03;;;10.40;98.30;;;;;;4152090;28;20486;-86
2021/05/23 06:30:20;;;;;;;13.30;4.20;;;10.40;98.30;;;;;;4152793;28;20557;-86
2021/05/23 06:32:25;;;;;;;7.97;3.50;;;10.40;98.30;;;;;;4148471;28;20519;-86
2021/05/23 06:34:30;;;;;;;7.97;3.30;;;10.40;98.30;;;;;;4152581;28;20492;-86
2021/05/23 06:36:42;;;;;;;5.27;3.20;;;10.50;98.30;;;;;;4152812;28;20504;-85
2021/05/23 06:38:45;;;;;;;13.10;4.90;;;10.50;98.30;;;;;;4152292;28;20520;-86
2021/05/23 06:40:48;;;;;;;8.50;3.67;;;10.50;98.30;;;;;;4148431;28;20464;-85
2021/05/23 06:42:54;;;;;;;6.50;3.40;;;10.60;98.30;;;;;;4155033;28;20476;-86
2021/05/23 06:44:57;;;;;;;7.43;3.37;;;10.60;98.30;;;;;;4155444;28;20511;-86
2021/05/23 06:47:00;;;;;;;5.37;3.50;;;10.80;98.30;;;;;;4156366;28;21073;-86
2021/05/23 06:49:03;;;;;;;7.17;3.10;;;11.00;98.30;;;;;;4150595;28;20474;-86
2021/05/23 06:51:05;;;;;;;7.80;3.30;;;11.00;98.30;;;;;;4155592;28;20473;-85
2021/05/23 06:53:08;;;;;;;6.60;3.10;;;11.00;98.30;;;;;;4154451;28;20465;-85
2021/05/23 06:55:13;;;;;;;5.80;3.40;;;11.10;98.30;;;;;;4154709;28;20833;-84
2021/05/23 06:57:15;;;;;;;8.57;3.90;;;11.10;98.30;;;;;;4152310;28;20486;-85
2021/05/23 06:59:17;;;;;;;10.50;3.53;;;11.20;98.30;;;;;;4155139;28;20519;-85
2021/05/23 07:01:20;;;;;;;12.37;4.30;;;11.30;98.30;;;;;;4154589;28;20477;-85
2021/05/23 07:03:22;;;;;;;6.13;3.40;;;11.20;98.30;;;;;;4155235;28;20562;-85
2021/05/23 07:05:24;;;;;;;6.33;3.23;;;11.40;98.30;;;;;;4161607;28;20478;-86
2021/05/23 07:07:28;;;;;;;8.97;3.20;;;11.40;98.30;;;;;;4150936;28;20909;-86
2021/05/23 07:09:32;;;;;;;10.20;3.47;;;11.40;98.30;;;;;;4156540;28;20476;-86
2021/05/23 07:11:35;;;;;;;8.30;3.60;;;11.40;98.30;;;;;;4155156;28;20892;-86
2021/05/23 07:13:40;;;;;;;10.63;4.00;;;11.60;98.30;;;;;;4155115;28;20582;-85
2021/05/23 07:15:42;;;;;;;8.73;3.57;;;11.60;98.30;;;;;;4154185;28;20928;-86
2021/05/23 07:17:45;;;;;;;12.13;3.90;;;11.50;98.30;;;;;;4155178;28;21128;-86
2021/05/23 07:19:48;;;;;;;4.90;2.90;;;11.60;98.30;;;;;;4154710;28;20470;-86
2021/05/23 07:21:50;;;;;;;10.23;3.77;;;11.50;98.30;;;;;;4153607;28;20457;-86
2021/05/23 07:23:53;;;;;;;7.30;3.80;;;11.60;98.30;;;;;;4154395;28;20528;-86
2021/05/23 07:25:55;;;;;;;7.10;3.50;;;11.70;98.30;;;;;;4154502;28;20461;-86
2021/05/23 07:27:59;;;;;;;6.83;3.30;;;11.80;98.30;;;;;;4156390;28;20485;-86
2021/05/23 07:30:01;;;;;;;11.27;3.77;;;11.70;98.30;;;;;;4157678;28;20485;-86
2021/05/23 07:32:04;;;;;;;6.57;3.40;;;11.80;98.30;;;;;;4153805;28;20457;-86
2021/05/23 07:34:07;;;;;;;7.63;3.47;;;11.80;98.30;;;;;;4154160;28;20469;-87
2021/05/23 07:36:10;;;;;;;10.70;2.90;;;11.90;98.30;;;;;;4155818;28;20493;-86
2021/05/23 07:38:13;;;;;;;4.13;2.90;;;11.90;98.30;;;;;;4157387;28;20507;-86
2021/05/23 07:40:16;;;;;;;3.87;2.60;;;12.00;98.30;;;;;;4154484;28;20552;-86
2021/05/23 07:42:18;;;;;;;8.57;3.63;;;12.00;98.30;;;;;;4152539;28;20598;-86
2021/05/23 07:44:25;;;;;;;7.70;2.90;;;12.20;98.30;;;;;;4154282;28;20488;-86
2021/05/23 07:46:27;;;;;;;8.80;3.87;;;12.10;98.30;;;;;;4152634;28;20826;-86
2021/05/23 07:48:31;;;;;;;10.23;4.13;;;12.10;98.30;;;;;;4154529;28;20585;-86
2021/05/23 07:50:33;;;;;;;6.00;3.00;;;12.30;98.30;;;;;;4154046;28;20506;-86
2021/05/23 07:52:36;;;;;;;6.50;3.40;;;12.30;98.30;;;;;;4154073;28;20479;-86
2021/05/23 07:54:39;;;;;;;8.20;3.67;;;12.30;98.30;;;;;;4153291;28;20473;-86
2021/05/23 07:56:42;;;;;;;7.40;3.27;;;12.30;98.30;;;;;;4152900;28;20490;-86
2021/05/23 07:58:44;;;;;;;9.73;3.23;;;12.20;98.30;;;;;;4153654;28;20560;-85
2021/05/23 08:00:48;;;;;;;7.57;3.20;;;12.30;98.30;;;;;;4152706;28;20934;-85
2021/05/23 08:02:50;;;;;;;5.17;2.70;;;12.30;98.30;;;;;;4151192;28;20488;-85
2021/05/23 08:04:53;;;;;;;4.30;2.93;;;12.60;98.30;;;;;;4154657;28;20482;-87
2021/05/23 08:06:55;;;;;;;8.60;3.43;;;12.70;98.30;;;;;;4154048;28;20489;-84
2021/05/23 08:08:57;;;;;;;3.73;3.00;;;12.70;98.30;;;;;;4150694;28;20474;-86
2021/05/23 08:11:00;;;;;;;8.40;3.20;;;12.80;98.30;;;;;;4154027;28;20488;-86
2021/05/23 08:13:02;;;;;;;8.23;3.80;;;13.00;98.30;;;;;;4158013;28;20917;-83
2021/05/23 08:15:07;;;;;;;6.90;3.13;;;13.10;98.30;;;;;;4159845;28;20515;-83
2021/05/23 08:17:10;;;;;;;10.07;3.60;;;13.20;98.30;;;;;;4156057;28;20497;-83
2021/05/23 08:19:13;;;;;;;10.33;3.63;;;13.10;97.90;;;;;;4154903;28;20928;-83
2021/05/23 08:21:15;;;;;;;9.40;3.20;;;12.70;97.80;;;;;;4155180;28;20874;-82
2021/05/23 08:23:17;;;;;;;6.80;2.90;;;12.50;98.30;;;;;;4157157;28;20586;-82
2021/05/23 08:25:20;;;;;;;6.97;3.17;;;12.60;98.30;;;;;;4157556;28;20491;-82
2021/05/23 08:27:22;;;;;;;5.97;2.90;;;12.80;98.30;;;;;;4158486;28;20481;-82
2021/05/23 08:29:28;;;;;;;8.30;3.47;;;12.80;98.10;;;;;;4158204;28;20476;-82
2021/05/23 08:31:33;;;;;;;7.80;3.27;;;13.00;98.00;;;;;;4157948;28;20507;-82
2021/05/23 08:33:36;;;;;;;10.97;3.37;;;13.10;98.30;;;;;;4154291;28;20458;-82
2021/05/23 08:35:40;;;;;;;6.00;3.30;;;13.30;98.30;;;;;;4158225;28;20473;-82
2021/05/23 08:37:42;;;;;;;18.13;3.20;;;13.20;96.60;;;;;;4160368;28;20493;-82
2021/05/23 08:39:45;;;;;;;4.80;2.60;;;13.10;97.30;;;;;;4157739;28;20500;-82
2021/05/23 08:41:48;;;;;;;5.50;3.27;;;13.20;97.20;;;;;;4157897;28;20476;-82
2021/05/23 08:43:55;;;;;;;5.70;3.27;;;13.20;97.50;;;;;;4154942;28;20847;-83
2021/05/23 08:46:00;;;;;;;5.27;2.90;;;13.10;96.70;;;;;;4155785;28;20803;-82
2021/05/23 08:48:03;;;;;;;8.77;2.80;;;12.90;96.10;;;;;;4159935;28;20882;-83
2021/05/23 08:50:08;;;;;;;6.10;2.70;;;12.80;96.90;;;;;;4159608;28;21340;-82
2021/05/23 08:52:10;;;;;;;3.93;3.00;;;12.90;96.80;;;;;;4159506;28;20516;-82
2021/05/23 08:54:13;;;;;;;14.07;4.30;;;12.90;97.60;;;;;;4154526;28;20476;-82
2021/05/23 08:56:18;;;;;;;4.93;3.00;;;12.90;98.10;;;;;;4154396;28;20974;-83
2021/05/23 08:58:23;;;;;;;7.30;4.70;;;12.90;97.40;;;;;;4156912;28;21435;-83
2021/05/23 09:00:29;;;;;;;6.73;3.27;;;12.80;98.30;;;;;;4156412;28;20457;-83
2021/05/23 09:02:34;;;;;;;6.73;4.00;;;12.90;96.90;;;;;;4156790;28;20483;-82
2021/05/23 09:04:47;;;;;;;4.57;2.70;;;12.80;96.40;;;;;;4154280;28;20473;-81
2021/05/23 09:07:00;;;;;;;7.00;3.20;;;12.70;96.00;;;;;;4157590;28;20468;-82
2021/05/23 09:09:06;;;;;;;4.57;2.50;;;12.90;95.90;;;;;;4156415;28;20473;-83
2021/05/23 09:11:08;;;;;;;4.60;2.80;;;12.80;95.70;;;;;;4159280;28;20461;-84
2021/05/23 09:13:11;;;;;;;3.73;2.50;;;12.60;96.00;;;;;;4156358;28;20473;-82
2021/05/23 09:15:14;;;;;;;4.37;2.57;;;12.70;97.30;;;;;;4155770;28;20841;-82
2021/05/23 09:17:29;;;;;;;4.57;2.43;;;12.80;96.40;;;;;;4157444;28;20610;-82
2021/05/23 09:19:40;;;;;;;3.60;2.67;;;13.20;96.70;;;;;;4153587;28;21085;-82
2021/05/23 09:21:42;;;;;;;4.20;2.97;;;13.40;95.20;;;;;;4157128;28;20910;-82
2021/05/23 09:23:48;;;;;;;5.63;2.83;;;13.50;96.00;;;;;;4154670;28;20464;-82
2021/05/23 09:25:51;;;;;;;8.43;3.17;;;13.70;95.30;;;;;;4156456;28;20469;-82
2021/05/23 09:27:54;;;;;;;10.90;3.53;;;13.50;95.20;;;;;;4156457;28;20486;-82
2021/05/23 09:30:06;;;;;;;5.50;3.00;;;13.50;96.60;;;;;;4159208;28;20977;-82
2021/05/23 09:32:15;;;;;;;6.87;2.80;;;13.70;94.00;;;;;;4158757;28;20515;-82
2021/05/23 09:34:31;;;;;;;4.87;3.13;;;13.80;94.30;;;;;;4153612;28;20465;-83
2021/05/23 09:36:44;;;;;;;6.67;3.20;;;13.80;94.20;;;;;;4154004;28;20928;-84
2021/05/23 09:38:55;;;;;;;4.07;3.17;;;13.50;94.40;;;;;;4155419;28;21032;-82
2021/05/23 09:40:58;;;;;;;6.57;2.77;;;13.10;95.40;;;;;;4156378;28;20472;-83
2021/05/23 09:43:01;;;;;;;7.30;3.10;;;12.80;96.20;;;;;;4159496;28;20501;-84
2021/05/23 09:45:05;;;;;;;6.93;3.93;;;12.80;96.80;;;;;;4159629;28;21509;-84
2021/05/23 09:47:10;;;;;;;6.03;3.53;;;12.90;97.20;;;;;;4157235;28;20495;-83
2021/05/23 09:49:15;;;;;;;6.07;3.83;;;13.10;98.10;;;;;;4152624;28;20555;-82
2021/05/23 09:51:18;;;;;;;6.07;3.83;;;13.30;97.70;;;;;;4159261;28;20461;-85
2021/05/23 09:53:23;;;;;;;7.03;3.17;;;13.40;97.70;;;;;;4157319;28;20463;-84
2021/05/23 09:55:27;;;;;;;10.60;3.47;;;13.30;97.70;;;;;;4152533;28;20475;-84
2021/05/23 09:57:30;;;;;;;6.63;3.40;;;13.40;98.00;;;;;;4153416;28;21007;-84
2021/05/23 09:59:33;;;;;;;4.20;3.00;;;13.50;98.30;;;;;;4149531;28;21000;-83
2021/05/23 10:01:35;;;;;;;5.53;3.10;;;13.60;96.90;;;;;;4159469;28;20479;-83
2021/05/23 10:03:40;;;;;;;6.80;2.70;;;13.60;96.70;;;;;;4159389;28;21251;-83
2021/05/23 10:05:45;;;;;;;6.37;2.73;;;13.80;96.50;;;;;;4153573;28;20496;-83
2021/05/23 10:07:47;;;;;;;5.07;2.67;;;14.20;96.00;;;;;;4154657;28;20900;-84
2021/05/23 10:09:49;;;;;;;4.17;2.83;;;14.60;95.00;;;;;;4157316;28;20502;-83
2021/05/23 10:11:53;;;;;;;4.80;2.93;;;14.70;93.40;;;;;;4158631;28;20465;-84
2021/05/23 10:13:55;;;;;;;4.27;2.70;;;14.70;92.20;;;;;;4153351;28;20632;-85
2021/05/23 10:15:58;;;;;;;7.47;3.00;;;14.60;93.30;;;;;;4152683;28;20940;-84
2021/05/23 10:18:00;;;;;;;6.23;2.73;;;14.40;93.30;;;;;;4155600;28;20518;-85
2021/05/23 10:20:06;;;;;;;5.07;2.87;;;13.90;93.30;;;;;;4163455;28;20493;-85
2021/05/23 10:22:08;;;;;;;8.23;5.10;;;13.70;95.30;;;;;;4163998;28;20469;-84
2021/05/23 10:24:11;;;;;;;4.90;3.00;;;13.70;95.30;;;;;;4163498;28;20501;-84
2021/05/23 10:26:29;;;;;;;15.70;9.53;;;13.80;95.10;;;;;;4156632;28;20560;-85
2021/05/23 10:28:37;;;;;;;12.70;9.47;;;14.20;95.30;;;;;;4160698;28;20500;-85
2021/05/23 10:30:50;;;;;;;4.40;3.37;;;14.50;94.20;;;;;;4160093;28;20484;-84
2021/05/23 10:32:52;;;;;;;4.53;2.77;;;14.60;93.20;;;;;;4160288;28;20492;-84
2021/05/23 10:34:55;;;;;;;5.00;2.87;;;14.40;93.20;;;;;;4159806;28;20504;-84
2021/05/23 10:37:01;;;;;;;4.00;2.70;;;14.00;92.70;;;;;;4163451;28;20515;-84
2021/05/23 10:39:06;;;;;;;3.90;2.63;;;13.90;93.40;;;;;;4165448;28;20497;-84
2021/05/23 10:41:09;;;;;;;8.73;2.67;;;13.80;93.40;;;;;;4164897;28;20841;-85
2021/05/23 10:43:21;;;;;;;5.93;3.00;;;13.80;93.30;;;;;;4164163;28;20564;-84
2021/05/23 10:45:27;;;;;;;6.63;2.70;;;13.80;92.60;;;;;;4158399;28;20472;-84
2021/05/23 10:47:34;;;;;;;6.57;3.27;;;13.80;93.50;;;;;;4163923;28;20576;-84